createdAt,value
2023-02-07T00:01:21.632Z,-3.00
2023-02-07T00:03:49.265Z,-3.00
2023-02-07T00:06:29.336Z,-3.00
2023-02-07T00:08:58.335Z,-3.00
2023-02-07T00:11:26.087Z,-2.90
2023-02-07T00:13:55.174Z,-3.00
2023-02-07T00:16:25.393Z,-3.10
2023-02-07T00:18:53.417Z,-3.20
2023-02-07T00:21:23.246Z,-3.30
2023-02-07T00:23:51.803Z,-3.30
2023-02-07T00:26:21.184Z,-3.40
2023-02-07T00:28:51.361Z,-3.70
2023-02-07T00:31:25.816Z,-3.80
2023-02-07T00:33:56.388Z,-3.90
2023-02-07T00:36:26.436Z,-4.10
2023-02-07T00:38:59.416Z,-3.90
2023-02-07T00:41:27.979Z,-3.80
2023-02-07T00:43:56.273Z,-3.70
2023-02-07T00:46:25.002Z,-3.70
2023-02-07T00:48:54.468Z,-3.70
2023-02-07T00:51:22.602Z,-3.70
2023-02-07T00:53:49.801Z,-3.70
2023-02-07T00:56:19.254Z,-3.70
2023-02-07T00:58:46.654Z,-3.80
2023-02-07T01:01:14.605Z,-3.90
2023-02-07T01:03:42.164Z,-3.80
2023-02-07T01:06:10.256Z,-3.80
2023-02-07T01:08:38.768Z,-3.60
2023-02-07T01:11:09.355Z,-3.50
2023-02-07T01:13:38.476Z,-3.60
2023-02-07T01:16:06.201Z,-3.70
2023-02-07T01:18:33.397Z,-3.80
2023-02-07T01:21:02.933Z,-4.00
2023-02-07T01:23:30.140Z,-4.20
2023-02-07T01:25:57.685Z,-4.20
2023-02-07T01:28:24.957Z,-4.30
2023-02-07T01:30:52.175Z,-4.40
2023-02-07T01:33:19.426Z,-4.50
2023-02-07T01:35:46.993Z,-4.70
2023-02-07T01:38:15.357Z,-4.80
2023-02-07T01:40:42.917Z,-4.90
2023-02-07T01:43:19.645Z,-5.00
2023-02-07T01:45:46.887Z,-4.90
2023-02-07T01:48:20.576Z,-4.80
2023-02-07T01:50:51.291Z,-4.70
2023-02-07T01:53:22.289Z,-4.60
2023-02-07T01:55:53.630Z,-4.80
2023-02-07T01:58:22.499Z,-4.80
2023-02-07T02:00:51.012Z,-4.80
2023-02-07T02:03:18.316Z,-4.70
2023-02-07T02:05:47.077Z,-4.80
2023-02-07T02:08:15.500Z,-4.70
2023-02-07T02:11:08.967Z,-4.50
2023-02-07T02:14:15.660Z,-4.50
2023-02-07T02:16:58.592Z,-4.40
2023-02-07T02:19:28.477Z,-4.40
2023-02-07T02:22:24.300Z,-4.50
2023-02-07T02:25:29.810Z,-4.40
2023-02-07T02:28:10.934Z,-4.20
2023-02-07T02:30:54.708Z,-4.10
2023-02-07T02:33:40.604Z,-3.90
2023-02-07T02:36:45.798Z,-4.00
2023-02-07T02:39:25.833Z,-4.00
2023-02-07T02:42:08.586Z,-3.90
2023-02-07T02:44:44.235Z,-3.80
2023-02-07T02:47:11.947Z,-3.80
2023-02-07T02:49:39.542Z,-3.60
2023-02-07T02:52:08.191Z,-3.60
2023-02-07T02:54:37.814Z,-3.50
2023-02-07T02:57:28.417Z,-3.50
2023-02-07T03:00:30.475Z,-3.40
2023-02-07T03:03:33.216Z,-3.20
2023-02-07T03:06:30.401Z,-3.10
2023-02-07T03:09:20.941Z,-3.20
2023-02-07T03:12:05.151Z,-3.20
2023-02-07T03:15:04.000Z,-3.20
2023-02-07T03:17:56.109Z,-3.10
2023-02-07T03:20:31.699Z,-3.10
2023-02-07T03:23:02.221Z,-3.20
2023-02-07T03:25:31.524Z,-3.20
2023-02-07T03:28:00.886Z,-3.20
2023-02-07T03:30:32.688Z,-3.30
2023-02-07T03:33:09.925Z,-3.30
2023-02-07T03:36:02.667Z,-3.60
2023-02-07T03:38:30.630Z,-3.70
2023-02-07T03:41:02.148Z,-3.80
2023-02-07T03:43:32.571Z,-3.90
2023-02-07T03:46:00.528Z,-3.90
2023-02-07T03:48:27.714Z,-3.90
2023-02-07T03:50:54.908Z,-3.90
2023-02-07T03:53:22.157Z,-4.00
2023-02-07T03:55:49.339Z,-4.10
2023-02-07T03:58:16.606Z,-4.10
2023-02-07T04:00:43.824Z,-4.20
2023-02-07T04:03:11.333Z,-4.20
2023-02-07T04:05:38.927Z,-4.20
2023-02-07T04:08:06.358Z,-4.30
2023-02-07T04:10:33.517Z,-4.50
2023-02-07T04:13:00.694Z,-4.60
2023-02-07T04:15:28.496Z,-4.70
2023-02-07T04:17:55.644Z,-4.80
2023-02-07T04:20:23.326Z,-4.70
2023-02-07T04:22:50.524Z,-4.70
2023-02-07T04:25:18.590Z,-4.60
2023-02-07T04:27:46.097Z,-4.60
2023-02-07T04:30:13.486Z,-4.40
2023-02-07T04:32:41.575Z,-4.50
2023-02-07T04:35:09.559Z,-4.70
2023-02-07T04:37:37.182Z,-4.80
2023-02-07T04:40:05.163Z,-4.90
2023-02-07T04:42:32.413Z,-5.00
2023-02-07T04:44:59.640Z,-5.00
2023-02-07T04:47:26.853Z,-5.00
2023-02-07T04:49:54.427Z,-5.00
2023-02-07T04:52:21.610Z,-5.00
2023-02-07T04:54:48.860Z,-5.20
2023-02-07T04:57:16.425Z,-5.30
2023-02-07T04:59:43.579Z,-5.10
2023-02-07T05:02:10.748Z,-5.10
2023-02-07T05:04:38.595Z,-5.30
2023-02-07T05:07:06.050Z,-5.60
2023-02-07T05:09:33.305Z,-5.70
2023-02-07T05:12:00.576Z,-5.90
2023-02-07T05:14:27.838Z,-5.90
2023-02-07T05:16:55.109Z,-5.90
2023-02-07T05:19:22.388Z,-6.00
2023-02-07T05:21:49.553Z,-6.00
2023-02-07T05:24:17.101Z,-6.10
2023-02-07T05:26:44.288Z,-5.90
2023-02-07T05:29:11.432Z,-5.80
2023-02-07T05:31:57.716Z,-5.80
2023-02-07T05:34:25.307Z,-5.90
2023-02-07T05:36:53.393Z,-6.00
2023-02-07T05:39:20.746Z,-6.20
2023-02-07T05:41:48.302Z,-6.10
2023-02-07T05:44:16.198Z,-6.20
2023-02-07T05:46:43.448Z,-6.30
2023-02-07T05:49:10.783Z,-6.30
2023-02-07T05:51:37.989Z,-6.30
2023-02-07T05:54:05.234Z,-6.40
2023-02-07T05:56:32.417Z,-6.40
2023-02-07T05:58:59.645Z,-6.50
2023-02-07T06:01:26.807Z,-6.60
2023-02-07T06:03:54.022Z,-6.60
2023-02-07T06:06:21.261Z,-6.70
2023-02-07T06:08:48.423Z,-6.80
2023-02-07T06:11:15.574Z,-6.60
2023-02-07T06:13:42.900Z,-6.40
2023-02-07T06:16:10.712Z,-6.40
2023-02-07T06:18:38.563Z,-6.40
2023-02-07T06:21:06.351Z,-6.40
2023-02-07T06:23:33.532Z,-6.50
2023-02-07T06:26:00.865Z,-6.30
2023-02-07T06:28:28.078Z,-6.30
2023-02-07T06:30:55.422Z,-6.40
2023-02-07T06:33:22.626Z,-6.60
2023-02-07T06:35:50.288Z,-6.60
2023-02-07T06:38:18.406Z,-6.60
2023-02-07T06:40:46.027Z,-6.60
2023-02-07T06:43:13.705Z,-6.60
2023-02-07T06:45:41.003Z,-6.50
2023-02-07T06:48:09.580Z,-6.20
2023-02-07T06:50:37.277Z,-6.00
2023-02-07T06:53:04.712Z,-5.90
2023-02-07T06:55:36.316Z,-6.10
2023-02-07T06:58:05.592Z,-6.20
2023-02-07T07:00:32.908Z,-6.30
2023-02-07T07:03:00.387Z,-6.50
2023-02-07T07:05:30.623Z,-6.50
2023-02-07T07:07:57.868Z,-6.50
2023-02-07T07:10:25.767Z,-6.60
2023-02-07T07:12:53.605Z,-6.60
2023-02-07T07:15:20.936Z,-6.70
2023-02-07T07:17:48.083Z,-6.70
2023-02-07T07:20:17.572Z,-6.70
2023-02-07T07:22:44.930Z,-6.70
2023-02-07T07:25:12.501Z,-6.70
2023-02-07T07:27:39.663Z,-6.70
2023-02-07T07:30:10.634Z,-6.60
2023-02-07T07:32:38.753Z,-6.60
2023-02-07T07:35:07.434Z,-6.60
2023-02-07T07:37:34.785Z,-6.10
2023-02-07T07:40:05.705Z,-5.70
2023-02-07T07:42:32.924Z,-5.20
2023-02-07T07:45:10.890Z,-4.70
2023-02-07T07:47:38.079Z,-4.40
2023-02-07T07:50:06.727Z,-4.20
2023-02-07T07:52:34.853Z,-4.30
2023-02-07T07:55:02.064Z,-4.40
2023-02-07T07:57:30.541Z,-4.20
2023-02-07T07:59:57.786Z,-3.80
2023-02-07T08:02:25.034Z,-3.50
2023-02-07T08:04:52.365Z,-3.60
2023-02-07T08:07:19.664Z,-3.60
2023-02-07T08:09:47.200Z,-3.60
2023-02-07T08:12:14.369Z,-3.40
2023-02-07T08:14:41.571Z,-3.00
2023-02-07T08:17:08.756Z,-2.70
2023-02-07T08:19:38.166Z,-2.60
2023-02-07T08:22:05.463Z,-2.30
2023-02-07T08:24:33.867Z,-2.40
2023-02-07T08:27:02.326Z,-2.40
2023-02-07T08:29:29.543Z,-2.30
2023-02-07T08:31:56.775Z,-1.80
2023-02-07T08:34:26.270Z,-1.70
2023-02-07T08:36:53.586Z,-1.50
2023-02-07T08:39:21.506Z,-1.30
2023-02-07T08:41:50.559Z,-1.40
2023-02-07T08:44:17.754Z,-1.30
2023-02-07T08:46:44.968Z,-0.80
2023-02-07T08:49:12.218Z,-0.70
2023-02-07T08:51:39.586Z,-0.70
2023-02-07T08:54:06.799Z,-0.20
2023-02-07T08:56:34.029Z,0.40
2023-02-07T08:59:01.955Z,0.90
2023-02-07T09:01:29.302Z,1.60
2023-02-07T09:03:57.155Z,2.50
2023-02-07T09:06:25.776Z,3.00
2023-02-07T09:08:54.155Z,3.90
2023-02-07T09:11:23.030Z,4.90
2023-02-07T09:13:50.331Z,5.60
2023-02-07T09:16:17.651Z,5.90
2023-02-07T09:18:44.848Z,6.10
2023-02-07T09:21:12.166Z,6.60
2023-02-07T09:23:39.423Z,7.20
2023-02-07T09:26:08.353Z,6.90
2023-02-07T09:28:36.106Z,6.30
2023-02-07T09:31:11.445Z,6.40
2023-02-07T09:33:39.568Z,6.30
2023-02-07T09:36:15.550Z,7.00
2023-02-07T09:38:44.371Z,6.90
2023-02-07T09:41:22.390Z,7.10
2023-02-07T09:44:03.112Z,7.90
2023-02-07T09:46:49.249Z,8.40
2023-02-07T09:49:45.919Z,8.60
2023-02-07T09:52:50.575Z,9.40
2023-02-07T09:55:25.453Z,9.30
2023-02-07T09:58:06.642Z,10.20
2023-02-07T10:00:37.784Z,10.50
2023-02-07T10:03:09.613Z,11.40
2023-02-07T10:05:46.241Z,11.40
2023-02-07T10:08:16.944Z,11.70
2023-02-07T10:11:06.223Z,12.20
2023-02-07T10:13:59.969Z,11.70
2023-02-07T10:17:04.010Z,12.30
2023-02-07T10:19:42.561Z,12.70
2023-02-07T10:22:19.244Z,13.40
2023-02-07T10:25:15.931Z,14.20
2023-02-07T10:28:09.933Z,13.90
2023-02-07T10:30:41.934Z,13.80
2023-02-07T10:33:18.953Z,14.20
2023-02-07T10:35:49.590Z,14.20
2023-02-07T10:39:08.526Z,14.30
2023-02-07T10:41:48.100Z,15.10
2023-02-07T10:44:20.873Z,15.30
2023-02-07T10:49:45.179Z,15.40
2023-02-07T10:52:37.457Z,16.00
2023-02-07T10:55:08.590Z,16.30
2023-02-07T10:57:37.038Z,16.60
2023-02-07T11:00:06.034Z,16.60
2023-02-07T11:02:38.903Z,16.50
2023-02-07T11:05:15.750Z,17.80
2023-02-07T11:08:22.890Z,19.10
2023-02-07T11:10:54.893Z,19.10
2023-02-07T11:13:29.201Z,19.40
2023-02-07T11:16:00.972Z,19.20
2023-02-07T11:18:38.477Z,20.00
2023-02-07T11:21:09.050Z,18.70
2023-02-07T11:23:37.073Z,18.20
2023-02-07T11:26:04.916Z,18.70
2023-02-07T11:28:32.757Z,19.40
2023-02-07T11:31:10.213Z,19.20
2023-02-07T11:33:37.755Z,20.30
2023-02-07T11:36:15.096Z,20.20
2023-02-07T11:38:49.473Z,20.20
2023-02-07T11:41:24.463Z,19.60
2023-02-07T11:43:55.566Z,20.50
2023-02-07T11:46:30.456Z,21.20
2023-02-07T11:48:58.795Z,21.20
2023-02-07T11:51:26.871Z,20.50
2023-02-07T11:53:57.950Z,21.50
2023-02-07T11:56:36.015Z,22.40
2023-02-07T11:59:15.431Z,22.00
2023-02-07T12:01:44.946Z,22.30
2023-02-07T12:04:24.661Z,22.70
2023-02-07T12:07:00.822Z,22.70
2023-02-07T12:09:49.117Z,22.00
2023-02-07T12:12:23.898Z,20.90
2023-02-07T12:14:58.307Z,20.10
2023-02-07T12:17:57.095Z,18.80
2023-02-07T12:20:31.650Z,20.60
2023-02-07T12:23:39.186Z,19.90
2023-02-07T12:26:01.782Z,18.30
2023-02-07T12:28:37.687Z,18.20
2023-02-07T12:31:18.259Z,19.00
2023-02-07T12:34:02.124Z,18.90
2023-02-07T12:36:44.257Z,18.40
2023-02-07T12:39:24.002Z,18.40
2023-02-07T12:42:19.487Z,18.20
2023-02-07T12:44:53.511Z,20.10
2023-02-07T12:47:27.452Z,21.20
2023-02-07T12:50:12.820Z,19.90
2023-02-07T12:53:11.075Z,20.60
2023-02-07T12:55:59.571Z,20.80
2023-02-07T12:58:41.837Z,20.00
2023-02-07T13:01:27.921Z,20.20
2023-02-07T13:04:33.399Z,19.40
2023-02-07T13:07:33.026Z,19.50
2023-02-07T13:10:13.329Z,20.00
2023-02-07T13:12:51.038Z,20.30
2023-02-07T13:15:29.979Z,20.60
2023-02-07T13:18:15.372Z,20.10
2023-02-07T13:21:10.738Z,19.90
2023-02-07T13:23:43.964Z,20.10
2023-02-07T13:26:17.057Z,19.50
2023-02-07T13:29:02.827Z,19.90
2023-02-07T13:31:37.404Z,19.70
2023-02-07T13:34:04.996Z,19.80
2023-02-07T13:36:43.998Z,19.60
2023-02-07T13:39:46.677Z,19.30
2023-02-07T13:42:36.104Z,19.60
2023-02-07T13:45:14.425Z,18.00
2023-02-07T13:47:55.139Z,18.10
2023-02-07T13:50:41.486Z,18.60
2023-02-07T13:53:46.851Z,18.50
2023-02-07T13:56:34.354Z,18.20
2023-02-07T13:59:21.243Z,18.70
2023-02-07T14:01:59.099Z,19.00
2023-02-07T14:04:47.082Z,18.40
2023-02-07T14:07:29.591Z,16.90
2023-02-07T14:09:58.923Z,16.40
2023-02-07T14:12:30.632Z,15.80
2023-02-07T14:15:34.742Z,15.40
2023-02-07T14:18:26.500Z,15.10
2023-02-07T14:21:05.452Z,15.50
2023-02-07T14:23:53.747Z,14.70
2023-02-07T14:26:39.384Z,14.60
2023-02-07T14:29:24.606Z,14.20
2023-02-07T14:32:22.485Z,13.40
2023-02-07T14:35:15.631Z,12.30
2023-02-07T14:38:15.479Z,11.50
2023-02-07T14:40:43.183Z,11.40
2023-02-07T14:43:13.443Z,11.20
2023-02-07T14:46:05.994Z,11.00
2023-02-07T14:48:41.783Z,10.30
2023-02-07T14:51:14.528Z,10.30
2023-02-07T14:53:45.043Z,10.30
2023-02-07T14:56:38.360Z,10.40
2023-02-07T14:59:07.895Z,9.10
2023-02-07T15:01:35.492Z,9.10
2023-02-07T15:04:05.779Z,8.50
2023-02-07T15:06:44.567Z,8.10
2023-02-07T15:09:27.554Z,7.80
2023-02-07T15:12:10.774Z,7.60
2023-02-07T15:14:46.458Z,7.40
2023-02-07T15:17:21.671Z,7.10
2023-02-07T15:19:49.768Z,6.90
2023-02-07T15:22:27.643Z,6.80
2023-02-07T15:24:59.370Z,6.70
2023-02-07T15:27:28.560Z,6.50
2023-02-07T15:30:01.364Z,6.30
2023-02-07T15:32:31.365Z,6.10
2023-02-07T15:35:18.981Z,5.80
2023-02-07T15:37:47.262Z,5.50
2023-02-07T15:40:17.284Z,5.30
2023-02-07T15:42:58.047Z,5.00
2023-02-07T15:45:33.297Z,4.70
2023-02-07T15:48:03.809Z,4.50
2023-02-07T15:50:31.626Z,4.30
2023-02-07T15:53:08.426Z,4.10
2023-02-07T15:55:37.944Z,3.90
2023-02-07T15:58:05.691Z,3.70
2023-02-07T16:00:39.089Z,3.50
2023-02-07T16:03:21.746Z,3.30
2023-02-07T16:06:00.341Z,3.10
2023-02-07T16:08:32.401Z,3.00
2023-02-07T16:11:13.006Z,2.80
2023-02-07T16:13:54.011Z,2.60
2023-02-07T16:16:32.976Z,2.50
2023-02-07T16:19:24.991Z,2.30
2023-02-07T16:22:14.998Z,2.00
2023-02-07T16:24:44.637Z,1.80
2023-02-07T16:27:24.413Z,1.60
2023-02-07T16:29:51.785Z,1.50
2023-02-07T16:32:19.841Z,1.30
2023-02-07T16:34:59.287Z,1.10
2023-02-07T16:37:29.574Z,1.00
2023-02-07T16:39:56.784Z,0.80
2023-02-07T16:42:24.674Z,0.70
2023-02-07T16:44:52.388Z,0.60
2023-02-07T16:47:19.792Z,0.50
2023-02-07T16:49:47.044Z,0.30
2023-02-07T16:52:14.233Z,0.10
2023-02-07T16:54:41.491Z,-0.10
2023-02-07T16:57:10.942Z,-0.30
2023-02-07T16:59:38.190Z,-0.40
2023-02-07T17:02:13.173Z,-0.60
2023-02-07T17:04:40.434Z,-0.70
2023-02-07T17:07:11.226Z,-0.80
2023-02-07T17:09:38.495Z,-0.90
2023-02-07T17:12:07.197Z,-1.00
2023-02-07T17:14:38.312Z,-0.90
2023-02-07T17:17:05.692Z,-1.10
2023-02-07T17:19:32.967Z,-1.10
2023-02-07T17:22:00.920Z,-1.10
2023-02-07T17:24:28.270Z,-1.20
2023-02-07T17:26:56.277Z,-1.30
2023-02-07T17:29:25.023Z,-1.30
2023-02-07T17:31:52.633Z,-1.40
2023-02-07T17:34:20.024Z,-1.50
2023-02-07T17:36:49.563Z,-1.60
2023-02-07T17:39:18.113Z,-1.70
2023-02-07T17:41:45.456Z,-1.80
2023-02-07T17:44:12.989Z,-1.90
2023-02-07T17:46:40.243Z,-2.00
2023-02-07T17:49:13.909Z,-2.00
2023-02-07T17:51:41.212Z,-2.00
2023-02-07T17:54:08.417Z,-1.90
2023-02-07T17:56:35.785Z,-1.80
2023-02-07T17:59:05.894Z,-1.80
2023-02-07T18:01:33.498Z,-1.60
2023-02-07T18:04:02.744Z,-1.60
2023-02-07T18:06:30.445Z,-1.70
2023-02-07T18:08:58.544Z,-1.80
2023-02-07T18:11:30.294Z,-1.90
2023-02-07T18:13:57.535Z,-1.90
2023-02-07T18:16:26.116Z,-1.90
2023-02-07T18:18:56.343Z,-1.90
2023-02-07T18:21:24.234Z,-1.70
2023-02-07T18:23:53.190Z,-1.60
2023-02-07T18:26:21.032Z,-1.70
2023-02-07T18:28:48.706Z,-1.70
2023-02-07T18:31:19.791Z,-1.70
2023-02-07T18:33:48.021Z,-1.80
2023-02-07T18:36:16.419Z,-1.80
2023-02-07T18:38:45.945Z,-1.80
2023-02-07T18:41:23.018Z,-1.90
2023-02-07T18:43:50.373Z,-2.00
2023-02-07T18:46:19.870Z,-2.20
2023-02-07T18:48:51.098Z,-2.30
2023-02-07T18:51:19.434Z,-2.40
2023-02-07T18:53:46.787Z,-2.40
2023-02-07T18:56:15.857Z,-2.50
2023-02-07T18:58:47.097Z,-2.70
2023-02-07T19:01:19.883Z,-2.80
2023-02-07T19:03:54.039Z,-2.80
2023-02-07T19:06:24.273Z,-2.90
2023-02-07T19:08:52.418Z,-2.90
2023-02-07T19:11:20.418Z,-2.80
2023-02-07T19:13:47.925Z,-2.60
2023-02-07T19:16:18.304Z,-2.60
2023-02-07T19:18:46.327Z,-2.60
2023-02-07T19:21:17.976Z,-2.70
2023-02-07T19:23:45.395Z,-2.70
2023-02-07T19:26:13.202Z,-2.70
2023-02-07T19:28:40.629Z,-2.80
2023-02-07T19:31:13.280Z,-2.90
2023-02-07T19:33:41.338Z,-2.90
2023-02-07T19:36:11.502Z,-2.90
2023-02-07T19:38:38.987Z,-3.00
2023-02-07T19:41:07.234Z,-3.00
2023-02-07T19:43:35.909Z,-2.80
2023-02-07T19:46:03.212Z,-2.70
2023-02-07T19:48:30.611Z,-2.50
2023-02-07T19:51:03.023Z,-2.50
2023-02-07T19:53:30.831Z,-2.40
2023-02-07T19:56:03.699Z,-2.40
2023-02-07T19:58:32.444Z,-2.40
2023-02-07T20:01:00.042Z,-2.40
2023-02-07T20:03:28.099Z,-2.40
2023-02-07T20:05:55.301Z,-2.50
2023-02-07T20:08:22.520Z,-2.40
2023-02-07T20:10:50.743Z,-2.50
2023-02-07T20:13:17.992Z,-2.60
2023-02-07T20:15:47.030Z,-2.70
2023-02-07T20:18:14.631Z,-2.70
2023-02-07T20:20:43.689Z,-2.70
2023-02-07T20:23:11.701Z,-2.60
2023-02-07T20:25:40.163Z,-2.60
2023-02-07T20:28:07.832Z,-2.60
2023-02-07T20:30:35.928Z,-2.60
2023-02-07T20:33:03.096Z,-2.70
2023-02-07T20:35:30.310Z,-2.60
2023-02-07T20:37:57.577Z,-2.70
2023-02-07T20:40:24.996Z,-2.90
2023-02-07T20:42:52.253Z,-2.90
2023-02-07T20:45:20.055Z,-2.90
2023-02-07T20:47:47.578Z,-3.10
2023-02-07T20:50:14.756Z,-3.20
2023-02-07T20:52:42.195Z,-3.30
2023-02-07T20:55:09.754Z,-3.30
2023-02-07T20:57:36.941Z,-3.40
2023-02-07T21:00:05.016Z,-3.40
2023-02-07T21:02:32.302Z,-3.50
2023-02-07T21:05:00.153Z,-3.50
2023-02-07T21:07:27.487Z,-3.50
2023-02-07T21:09:54.745Z,-3.50
2023-02-07T21:12:22.112Z,-3.60
2023-02-07T21:14:50.018Z,-3.60
2023-02-07T21:17:17.906Z,-3.70
2023-02-07T21:19:45.489Z,-3.80
2023-02-07T21:22:13.299Z,-3.80
2023-02-07T21:24:42.293Z,-3.90
2023-02-07T21:27:10.375Z,-3.90
2023-02-07T21:29:38.497Z,-3.80
2023-02-07T21:32:06.275Z,-3.90
2023-02-07T21:34:34.162Z,-3.90
2023-02-07T21:37:01.332Z,-3.90
2023-02-07T21:39:28.514Z,-3.80
2023-02-07T21:41:55.862Z,-3.70
2023-02-07T21:44:23.441Z,-3.70
2023-02-07T21:46:51.659Z,-3.90
2023-02-07T21:49:20.434Z,-4.00
2023-02-07T21:51:49.733Z,-4.10
2023-02-07T21:54:17.687Z,-4.30
2023-02-07T21:56:45.820Z,-4.40
2023-02-07T21:59:18.303Z,-4.40
2023-02-07T22:01:46.577Z,-4.50
2023-02-07T22:04:14.790Z,-4.50
2023-02-07T22:06:43.796Z,-4.50
2023-02-07T22:09:13.013Z,-4.60
2023-02-07T22:11:40.692Z,-4.70
2023-02-07T22:14:07.972Z,-4.80
2023-02-07T22:16:35.345Z,-4.70
2023-02-07T22:19:05.765Z,-4.60
2023-02-07T22:21:35.456Z,-4.40
2023-02-07T22:24:05.594Z,-4.40
2023-02-07T22:26:34.019Z,-4.50
2023-02-07T22:29:02.542Z,-4.60
2023-02-07T22:31:31.527Z,-4.70
2023-02-07T22:34:13.417Z,-4.80
2023-02-07T22:36:43.330Z,-4.50
2023-02-07T22:39:12.623Z,-4.20
2023-02-07T22:41:39.912Z,-4.20
2023-02-07T22:44:07.205Z,-4.20
2023-02-07T22:46:34.796Z,-4.30
2023-02-07T22:49:02.330Z,-4.40
2023-02-07T22:51:34.579Z,-4.40
2023-02-07T22:54:05.499Z,-4.40
2023-02-07T22:56:34.384Z,-4.60
2023-02-07T22:59:01.832Z,-4.70
2023-02-07T23:01:34.842Z,-4.60
2023-02-07T23:04:04.306Z,-4.70
2023-02-07T23:06:32.554Z,-4.80
2023-02-07T23:09:00.592Z,-4.90
2023-02-07T23:11:28.020Z,-4.90
2023-02-07T23:13:55.367Z,-4.90
2023-02-07T23:16:26.641Z,-4.90
2023-02-07T23:18:58.467Z,-4.90
2023-02-07T23:21:27.117Z,-5.00
2023-02-07T23:23:57.065Z,-5.00
2023-02-07T23:26:26.092Z,-5.00
2023-02-07T23:28:53.890Z,-5.00
2023-02-07T23:31:23.040Z,-4.90
2023-02-07T23:33:51.241Z,-4.90
2023-02-07T23:36:19.265Z,-4.90
2023-02-07T23:38:47.830Z,-4.90
2023-02-07T23:41:15.627Z,-4.90
2023-02-07T23:43:43.041Z,-4.90
2023-02-07T23:46:11.744Z,-5.00
2023-02-07T23:48:39.140Z,-5.00
2023-02-07T23:51:07.046Z,-5.10
2023-02-07T23:53:35.266Z,-5.20
2023-02-07T23:56:04.831Z,-5.20
2023-02-07T23:58:33.223Z,-5.20
